Time;durP1;ratioP1;P1;durP2;ratioP2;P2;SDS_P1;SDS_P2;PMS_P1;PMS_P2;Temp;Humidity;BMP_temperature;BMP_pressure;BME280_temperature;BME280_humidity;BME280_pressure;Samples;Min_cycle;Max_cycle;Signal;HPM_P1;HPM_P2
2024/01/20 00:03:47;;;;;;;13.30;8.95;;;23.50;36.70;;;;;;10437544;28;20041;-43
2024/01/20 00:08:50;;;;;;;12.52;9.18;;;23.90;36.00;;;;;;10431754;28;20716;-43
2024/01/20 00:13:52;;;;;;;10.50;7.78;;;24.00;35.70;;;;;;10433398;28;20045;-43
2024/01/20 00:18:54;;;;;;;10.45;7.78;;;23.80;35.80;;;;;;10435282;28;20382;-43
2024/01/20 00:23:57;;;;;;;10.30;7.45;;;23.80;35.90;;;;;;10432355;28;20037;-43
2024/01/20 00:28:58;;;;;;;9.27;7.03;;;24.00;35.60;;;;;;10434144;28;20521;-45
2024/01/20 00:34:00;;;;;;;10.73;7.70;;;23.80;35.70;;;;;;10442191;28;20068;-43
2024/01/20 00:39:03;;;;;;;10.57;7.55;;;23.70;35.90;;;;;;10433246;28;20045;-43
2024/01/20 00:44:05;;;;;;;8.98;6.88;;;23.50;36.30;;;;;;10437847;28;20080;-43
2024/01/20 00:49:07;;;;;;;8.77;6.50;;;23.50;36.30;;;;;;10424287;28;20041;-43
2024/01/20 00:54:09;;;;;;;9.13;6.55;;;23.30;36.40;;;;;;10436825;28;20566;-43
2024/01/20 00:59:11;;;;;;;7.57;6.05;;;23.50;36.30;;;;;;10426089;28;20486;-44
2024/01/20 01:04:13;;;;;;;8.13;6.00;;;23.50;36.20;;;;;;10428890;28;20049;-43
2024/01/20 01:09:15;;;;;;;7.75;5.85;;;23.40;36.40;;;;;;10433008;28;20571;-47
2024/01/20 01:14:17;;;;;;;6.63;5.47;;;23.40;36.40;;;;;;10432236;28;20510;-43
2024/01/20 01:19:19;;;;;;;7.05;5.32;;;23.20;36.40;;;;;;10432812;28;20503;-46
2024/01/20 01:24:22;;;;;;;7.93;4.88;;;23.30;36.20;;;;;;10433248;28;20128;-44
2024/01/20 01:29:23;;;;;;;6.25;4.82;;;23.40;36.30;;;;;;10424258;28;20079;-46
2024/01/20 01:34:25;;;;;;;6.13;4.57;;;23.30;36.20;;;;;;10435052;28;20137;-43
2024/01/20 01:39:28;;;;;;;6.32;4.80;;;23.50;36.10;;;;;;10427937;28;20051;-43
2024/01/20 01:44:29;;;;;;;5.78;4.40;;;23.40;36.20;;;;;;10430414;28;20119;-45
2024/01/20 01:49:31;;;;;;;6.20;4.25;;;23.30;36.40;;;;;;10440115;28;20045;-45
2024/01/20 01:54:34;;;;;;;5.35;4.25;;;23.20;36.40;;;;;;10424337;28;20047;-45
2024/01/20 01:59:35;;;;;;;5.25;4.25;;;23.30;36.30;;;;;;10439352;28;20047;-43
2024/01/20 02:04:37;;;;;;;5.80;4.05;;;23.30;36.00;;;;;;10429084;28;20534;-44
2024/01/20 02:09:40;;;;;;;5.55;4.35;;;23.30;36.20;;;;;;10429816;28;20051;-43
2024/01/20 02:14:42;;;;;;;4.88;3.65;;;23.40;36.00;;;;;;10427650;28;20550;-45
2024/01/20 02:19:45;;;;;;;4.22;3.17;;;23.30;36.80;;;;;;10426063;28;20052;-46
2024/01/20 02:24:49;;;;;;;5.35;3.58;;;23.30;36.20;;;;;;10433931;28;20099;-43
2024/01/20 02:29:50;;;;;;;4.63;3.60;;;23.40;35.90;;;;;;10429052;28;20059;-43
2024/01/20 02:34:52;;;;;;;4.80;3.35;;;23.30;36.20;;;;;;10428703;28;20045;-43
2024/01/20 02:39:56;;;;;;;4.03;3.10;;;23.30;36.10;;;;;;10436903;28;20112;-44
2024/01/20 02:44:58;;;;;;;4.30;3.03;;;23.20;36.20;;;;;;10437229;28;20045;-43
2024/01/20 02:49:59;;;;;;;3.45;2.65;;;23.30;36.00;;;;;;10440030;28;20057;-45
2024/01/20 02:55:03;;;;;;;3.53;2.58;;;23.20;36.10;;;;;;10435045;28;20040;-45
2024/01/20 03:00:07;;;;;;;3.63;2.60;;;23.30;36.00;;;;;;10434507;28;20053;-42
2024/01/20 03:05:10;;;;;;;4.53;3.10;;;23.20;35.90;;;;;;10449101;28;20048;-42
2024/01/20 03:10:13;;;;;;;3.15;2.47;;;23.10;36.10;;;;;;10428875;28;20077;-46
2024/01/20 03:15:14;;;;;;;3.42;2.70;;;23.20;35.90;;;;;;10439166;28;20052;-43
2024/01/20 03:20:16;;;;;;;3.25;2.63;;;23.30;35.90;;;;;;10434103;28;20578;-44
2024/01/20 03:25:19;;;;;;;3.10;2.58;;;23.20;35.80;;;;;;10438693;28;20499;-46
2024/01/20 03:30:21;;;;;;;3.08;2.53;;;23.20;35.90;;;;;;10438569;28;20521;-47
2024/01/20 03:35:23;;;;;;;3.45;2.33;;;23.10;36.00;;;;;;10434450;28;20660;-43
2024/01/20 03:40:26;;;;;;;2.53;2.28;;;23.10;36.00;;;;;;10440601;28;20049;-43
2024/01/20 03:45:27;;;;;;;3.55;2.25;;;23.10;35.90;;;;;;10430098;28;20049;-47
2024/01/20 03:50:29;;;;;;;3.60;2.22;;;23.10;36.10;;;;;;10438698;28;20037;-42
2024/01/20 03:55:32;;;;;;;2.88;2.30;;;23.10;35.90;;;;;;10434571;28;20056;-43
2024/01/20 04:00:33;;;;;;;3.00;1.92;;;23.10;36.00;;;;;;10432155;28;20055;-43
2024/01/20 04:05:36;;;;;;;2.25;1.88;;;23.20;36.00;;;;;;10436785;28;20076;-43
2024/01/20 04:10:39;;;;;;;2.50;1.95;;;23.40;35.70;;;;;;10435328;28;20414;-43
2024/01/20 04:15:44;;;;;;;1.85;1.55;;;23.60;35.30;;;;;;10433730;28;20401;-43
2024/01/20 04:20:46;;;;;;;1.85;1.65;;;23.80;35.20;;;;;;10432979;28;20045;-43
2024/01/20 04:25:53;;;;;;;2.28;1.75;;;23.80;35.10;;;;;;10427930;28;20120;-43
2024/01/20 04:30:54;;;;;;;3.92;1.67;;;23.90;35.10;;;;;;10430228;28;20124;-43
2024/01/20 04:35:56;;;;;;;2.10;1.50;;;24.00;34.90;;;;;;10432340;28;20068;-43
2024/01/20 04:40:59;;;;;;;2.03;1.60;;;24.00;35.00;;;;;;10437588;28;20083;-46
2024/01/20 04:46:01;;;;;;;2.58;1.70;;;24.00;34.90;;;;;;10435411;28;20080;-44
2024/01/20 04:51:03;;;;;;;2.03;1.45;;;23.90;35.10;;;;;;10431388;28;20076;-44
2024/01/20 04:56:06;;;;;;;2.08;1.63;;;23.90;35.10;;;;;;10433155;28;20064;-45
2024/01/20 05:01:08;;;;;;;1.75;1.50;;;23.90;35.20;;;;;;10426140;28;20042;-45
2024/01/20 05:06:09;;;;;;;1.92;1.23;;;23.90;35.20;;;;;;10431328;28;20042;-44
2024/01/20 05:11:12;;;;;;;1.75;1.40;;;23.90;35.10;;;;;;10429833;28;20050;-48
2024/01/20 05:16:15;;;;;;;1.55;1.30;;;23.80;35.30;;;;;;10432909;28;20124;-43
2024/01/20 05:21:17;;;;;;;1.33;1.13;;;23.80;35.20;;;;;;10435258;28;20050;-44
2024/01/20 05:26:20;;;;;;;1.63;1.42;;;23.80;35.30;;;;;;10435244;28;20135;-43
2024/01/20 05:31:23;;;;;;;2.42;1.30;;;23.80;35.40;;;;;;10432656;28;20052;-44
2024/01/20 05:36:24;;;;;;;1.85;1.40;;;23.80;35.30;;;;;;10422654;28;20407;-44
2024/01/20 05:41:27;;;;;;;1.98;1.48;;;23.90;35.30;;;;;;10426800;28;20382;-46
2024/01/20 05:46:29;;;;;;;1.60;1.40;;;23.90;35.30;;;;;;10428631;28;20404;-43
2024/01/20 05:51:31;;;;;;;1.50;1.40;;;23.90;35.30;;;;;;10429284;28;20048;-46
2024/01/20 05:56:33;;;;;;;1.58;1.27;;;23.90;35.40;;;;;;10431865;28;20111;-43
2024/01/20 06:01:35;;;;;;;1.30;1.10;;;23.90;35.30;;;;;;10434802;28;20044;-44
2024/01/20 06:06:37;;;;;;;1.65;1.20;;;23.90;35.40;;;;;;10432436;28;20033;-44
2024/01/20 06:11:40;;;;;;;1.17;1.08;;;23.40;36.20;;;;;;10433686;28;20049;-45
2024/01/20 06:16:42;;;;;;;1.73;1.20;;;23.20;36.30;;;;;;10427986;28;20042;-45
2024/01/20 06:21:43;;;;;;;1.90;1.48;;;23.10;36.40;;;;;;10439529;28;20555;-43
2024/01/20 06:26:46;;;;;;;2.03;1.60;;;23.10;36.50;;;;;;10436252;28;20095;-44
2024/01/20 06:31:48;;;;;;;2.15;1.33;;;23.00;36.50;;;;;;10438955;28;20136;-50
2024/01/20 06:36:49;;;;;;;2.67;2.05;;;22.90;36.50;;;;;;10440167;28;20045;-43
2024/01/20 06:41:52;;;;;;;3.05;2.20;;;23.00;36.40;;;;;;10443767;28;20067;-45
2024/01/20 06:46:54;;;;;;;6.18;2.40;;;22.70;36.80;;;;;;10442199;28;20132;-44
2024/01/20 06:51:55;;;;;;;3.15;2.05;;;22.60;37.00;;;;;;10429828;28;20053;-44
2024/01/20 06:56:58;;;;;;;3.03;2.00;;;22.40;37.20;;;;;;10432562;28;20056;-43
2024/01/20 07:02:00;;;;;;;3.90;2.20;;;22.40;37.30;;;;;;10438084;28;20057;-43
2024/01/20 07:07:02;;;;;;;6.88;2.45;;;22.90;37.40;;;;;;10437106;28;20418;-44
2024/01/20 07:12:06;;;;;;;7.03;2.53;;;23.40;36.90;;;;;;10438414;28;20049;-43
2024/01/20 07:17:08;;;;;;;18.50;3.30;;;23.50;37.10;;;;;;10441259;28;20487;-46
2024/01/20 07:22:09;;;;;;;22.20;5.72;;;23.50;37.70;;;;;;10442660;28;20057;-43
2024/01/20 07:27:12;;;;;;;21.63;6.32;;;23.50;39.60;;;;;;10436594;28;20477;-43
2024/01/20 07:32:14;;;;;;;20.77;6.82;;;23.60;39.00;;;;;;10428777;28;20045;-45
2024/01/20 07:37:15;;;;;;;26.85;7.50;;;24.00;38.70;;;;;;10435370;28;20199;-45
2024/01/20 07:42:18;;;;;;;34.28;8.63;;;23.90;38.70;;;;;;10434888;28;20068;-44
2024/01/20 07:47:20;;;;;;;32.13;8.13;;;23.80;39.20;;;;;;10442501;28;20045;-44
2024/01/20 07:52:21;;;;;;;24.70;7.47;;;23.80;39.20;;;;;;10430879;28;20044;-44
2024/01/20 07:57:24;;;;;;;19.60;6.50;;;24.00;38.80;;;;;;10442020;28;20141;-45
2024/01/20 08:02:27;;;;;;;19.52;5.50;;;24.00;38.50;;;;;;10434610;28;20041;-44
2024/01/20 08:07:28;;;;;;;17.25;6.30;;;24.10;38.30;;;;;;10428151;28;20041;-46
2024/01/20 08:12:31;;;;;;;10.57;5.47;;;24.10;38.20;;;;;;10429408;28;20055;-44
2024/01/20 08:17:33;;;;;;;13.48;5.43;;;24.10;37.60;;;;;;10432523;28;20052;-45
2024/01/20 08:22:35;;;;;;;9.50;4.65;;;24.10;37.60;;;;;;10430694;28;20449;-44
2024/01/20 08:27:38;;;;;;;11.38;4.65;;;24.10;37.50;;;;;;10435206;28;20055;-44
2024/01/20 08:32:40;;;;;;;8.63;4.18;;;24.10;37.30;;;;;;10436137;28;20554;-45
2024/01/20 08:37:42;;;;;;;10.57;4.65;;;24.20;37.90;;;;;;10435679;28;20053;-47
2024/01/20 08:42:45;;;;;;;7.18;3.90;;;24.20;37.10;;;;;;10430822;28;20462;-43
2024/01/20 08:47:46;;;;;;;8.93;4.10;;;24.10;36.80;;;;;;10428851;28;20458;-46
2024/01/20 08:52:48;;;;;;;8.23;4.25;;;24.10;37.00;;;;;;10430411;28;20458;-44
2024/01/20 08:57:51;;;;;;;7.57;4.00;;;24.20;36.60;;;;;;10427357;28;20053;-46
2024/01/20 09:02:52;;;;;;;7.20;3.78;;;24.10;36.60;;;;;;10430275;28;20052;-44
2024/01/20 09:07:54;;;;;;;6.80;3.50;;;24.10;36.60;;;;;;10436701;28;20075;-44
2024/01/20 09:12:57;;;;;;;5.93;3.67;;;24.20;36.50;;;;;;10438734;28;20136;-45
2024/01/20 09:17:58;;;;;;;7.88;3.72;;;24.20;36.30;;;;;;10429759;28;20041;-45
2024/01/20 09:23:00;;;;;;;7.07;4.13;;;24.20;35.70;;;;;;10433028;28;20128;-46
2024/01/20 09:28:05;;;;;;;6.22;4.00;;;24.10;35.60;;;;;;10425642;28;20045;-44
2024/01/20 09:33:07;;;;;;;6.20;3.95;;;24.30;35.50;;;;;;10429407;28;20084;-44
2024/01/20 09:38:09;;;;;;;5.15;3.65;;;24.20;35.40;;;;;;10424537;28;20410;-45
2024/01/20 09:43:12;;;;;;;5.63;3.55;;;24.20;35.30;;;;;;10433053;28;20721;-43
2024/01/20 09:48:13;;;;;;;5.07;3.17;;;24.20;35.30;;;;;;10433563;28;20053;-44
2024/01/20 09:53:15;;;;;;;6.28;3.65;;;24.20;35.40;;;;;;10435772;28;20139;-43
2024/01/20 09:58:19;;;;;;;5.15;3.28;;;24.30;35.20;;;;;;10441023;28;20040;-45
2024/01/20 10:03:21;;;;;;;4.95;3.10;;;24.20;35.10;;;;;;10434886;28;20139;-44
2024/01/20 10:08:22;;;;;;;6.63;3.67;;;24.20;35.00;;;;;;10436071;28;20495;-44
2024/01/20 10:13:26;;;;;;;5.82;3.03;;;24.20;35.20;;;;;;10432129;28;20056;-46
2024/01/20 10:18:28;;;;;;;4.70;3.03;;;24.20;35.10;;;;;;10432743;28;20044;-44
2024/01/20 10:23:30;;;;;;;4.13;3.05;;;24.20;35.20;;;;;;10440883;28;20055;-44
2024/01/20 10:28:33;;;;;;;5.28;2.95;;;24.30;34.80;;;;;;10440045;28;20044;-45
2024/01/20 10:33:35;;;;;;;4.18;3.10;;;24.30;34.60;;;;;;10436144;28;20056;-46
2024/01/20 10:38:38;;;;;;;3.45;2.70;;;24.30;34.50;;;;;;10437286;28;20107;-44
2024/01/20 10:43:42;;;;;;;4.32;2.55;;;24.30;34.70;;;;;;10432023;28;20571;-44
2024/01/20 10:48:47;;;;;;;3.78;2.72;;;24.30;34.90;;;;;;10433982;28;20044;-45
2024/01/20 10:53:49;;;;;;;4.45;2.92;;;24.30;34.80;;;;;;10432526;28;20498;-44
2024/01/20 10:58:57;;;;;;;4.18;2.90;;;24.20;34.80;;;;;;10435504;28;20064;-44
2024/01/20 11:03:59;;;;;;;2.83;2.38;;;24.30;34.40;;;;;;10436835;28;20078;-43
2024/01/20 11:09:00;;;;;;;4.20;2.50;;;24.30;34.60;;;;;;10432740;28;20049;-45
2024/01/20 11:14:03;;;;;;;3.42;2.58;;;24.30;34.30;;;;;;10440311;28;20045;-44
2024/01/20 11:19:07;;;;;;;4.18;2.90;;;24.30;34.40;;;;;;10426633;28;20076;-44
2024/01/20 11:24:09;;;;;;;3.13;2.40;;;24.30;34.40;;;;;;10428612;28;20049;-47
2024/01/20 11:29:12;;;;;;;4.53;2.83;;;24.30;34.50;;;;;;10428560;28;20045;-43
2024/01/20 11:34:13;;;;;;;4.35;2.30;;;24.30;34.60;;;;;;10429585;28;20067;-46
2024/01/20 11:39:17;;;;;;;3.00;2.53;;;24.20;34.40;;;;;;10437580;28;20080;-45
2024/01/20 11:44:21;;;;;;;4.00;2.83;;;24.30;34.20;;;;;;10434826;28;20128;-44
2024/01/20 11:49:23;;;;;;;3.00;2.63;;;24.40;34.20;;;;;;10433909;28;20132;-44
2024/01/20 11:54:24;;;;;;;3.75;2.50;;;24.30;34.30;;;;;;10434099;28;20056;-45
2024/01/20 11:59:27;;;;;;;2.70;2.25;;;24.30;34.00;;;;;;10425914;28;20049;-43
2024/01/20 12:04:29;;;;;;;3.95;2.45;;;24.40;34.00;;;;;;10426260;28;20102;-44
2024/01/20 12:09:31;;;;;;;3.22;2.42;;;24.40;34.10;;;;;;10434289;28;20041;-44
2024/01/20 12:14:34;;;;;;;2.92;2.20;;;24.40;34.00;;;;;;10430424;28;20055;-45
2024/01/20 12:19:36;;;;;;;3.90;2.20;;;24.40;34.00;;;;;;10436460;28;20084;-45
2024/01/20 12:24:37;;;;;;;2.55;1.98;;;24.30;33.90;;;;;;10429183;28;20040;-45
2024/01/20 12:29:41;;;;;;;2.55;1.90;;;24.40;34.20;;;;;;10436518;28;20041;-44
2024/01/20 12:34:42;;;;;;;2.95;2.28;;;24.30;34.30;;;;;;10424980;28;20208;-45
2024/01/20 12:39:44;;;;;;;3.22;2.05;;;24.40;34.10;;;;;;10427691;28;20129;-44
2024/01/20 12:44:47;;;;;;;2.50;1.95;;;24.40;34.20;;;;;;10434851;28;20052;-44
2024/01/20 12:49:48;;;;;;;2.53;2.20;;;24.40;34.00;;;;;;10431619;28;20047;-44
2024/01/20 12:54:50;;;;;;;3.05;2.00;;;24.30;34.20;;;;;;10431598;28;20500;-43
2024/01/20 12:59:53;;;;;;;2.63;2.10;;;24.40;34.00;;;;;;10432704;28;20053;-44
2024/01/20 13:04:55;;;;;;;2.78;1.92;;;24.30;34.30;;;;;;10432579;28;20053;-45
2024/01/20 13:09:56;;;;;;;2.33;2.08;;;24.40;34.30;;;;;;10431519;28;20052;-44
2024/01/20 13:14:59;;;;;;;2.22;2.03;;;24.40;34.10;;;;;;10426896;28;20053;-45
2024/01/20 13:20:01;;;;;;;2.38;1.80;;;24.40;34.30;;;;;;10436536;28;20051;-43
2024/01/20 13:25:04;;;;;;;4.32;2.08;;;24.50;33.90;;;;;;10437541;28;20041;-43
2024/01/20 13:30:09;;;;;;;5.72;2.03;;;24.50;34.30;;;;;;10437049;28;20053;-44
2024/01/20 13:35:11;;;;;;;3.85;2.00;;;24.30;34.60;;;;;;10432916;28;20119;-44
2024/01/20 13:40:13;;;;;;;4.13;1.83;;;24.30;35.10;;;;;;10430237;28;20054;-49
2024/01/20 13:45:16;;;;;;;2.22;1.35;;;24.30;35.10;;;;;;10431134;28;20041;-44
2024/01/20 13:50:18;;;;;;;2.63;1.60;;;24.30;35.20;;;;;;10426060;28;20049;-45
2024/01/20 13:55:20;;;;;;;3.25;1.70;;;24.40;35.00;;;;;;10430099;28;20131;-44
2024/01/20 14:00:23;;;;;;;3.53;2.00;;;24.40;34.80;;;;;;10430625;28;20059;-43
2024/01/20 14:05:24;;;;;;;4.55;1.65;;;24.40;35.00;;;;;;10435925;28;20041;-45
2024/01/20 14:10:26;;;;;;;2.15;1.73;;;24.40;35.10;;;;;;10431018;28;20037;-45
2024/01/20 14:15:29;;;;;;;3.83;1.83;;;24.50;34.60;;;;;;10431034;28;20045;-44
2024/01/20 14:20:30;;;;;;;2.40;1.70;;;24.60;34.40;;;;;;10433325;28;20049;-46
2024/01/20 14:25:32;;;;;;;2.30;1.80;;;24.60;34.40;;;;;;10431707;28;20045;-43
2024/01/20 14:30:35;;;;;;;3.38;1.67;;;24.60;34.40;;;;;;10429224;28;20052;-43
2024/01/20 14:35:36;;;;;;;3.28;1.88;;;24.60;34.50;;;;;;10427290;28;20041;-43
2024/01/20 14:40:38;;;;;;;4.03;1.60;;;24.40;35.30;;;;;;10439476;28;20490;-44
2024/01/20 14:45:41;;;;;;;3.17;1.50;;;24.50;35.50;;;;;;10440312;28;20045;-45
2024/01/20 14:50:43;;;;;;;2.80;1.60;;;24.50;35.70;;;;;;10434751;28;20124;-48
2024/01/20 14:55:44;;;;;;;7.93;1.98;;;24.60;35.60;;;;;;10432321;28;20041;-45
2024/01/20 15:00:47;;;;;;;2.45;1.50;;;24.50;35.50;;;;;;10439732;28;20127;-50
2024/01/20 15:05:49;;;;;;;3.45;1.60;;;24.50;35.50;;;;;;10436390;28;20132;-58
2024/01/20 15:10:50;;;;;;;3.78;1.42;;;24.70;35.50;;;;;;10433053;28;20045;-51
2024/01/20 15:15:53;;;;;;;4.15;1.38;;;24.60;36.00;;;;;;10437294;28;20550;-56
2024/01/20 15:20:55;;;;;;;12.85;1.80;;;24.40;36.60;;;;;;10437816;28;20491;-51
2024/01/20 15:25:57;;;;;;;4.22;1.50;;;24.50;36.70;;;;;;10432878;28;20068;-51
2024/01/20 15:31:02;;;;;;;18.30;1.58;;;24.50;37.00;;;;;;10427908;28;20048;-57
2024/01/20 15:36:05;;;;;;;7.57;1.45;;;24.50;37.20;;;;;;10435751;28;20049;-55
2024/01/20 15:41:06;;;;;;;12.50;1.52;;;24.60;37.30;;;;;;10438624;28;20126;-55
2024/01/20 15:46:09;;;;;;;3.17;1.60;;;24.70;36.70;;;;;;10430841;28;20044;-55
2024/01/20 15:51:11;;;;;;;5.35;1.90;;;24.80;36.10;;;;;;10432096;28;20046;-55
2024/01/20 15:56:13;;;;;;;4.30;1.70;;;24.90;35.80;;;;;;10438507;28;20045;-58
2024/01/20 16:01:16;;;;;;;4.38;1.45;;;24.90;35.60;;;;;;10440957;28;20041;-53
2024/01/20 16:06:17;;;;;;;4.00;1.60;;;24.80;35.60;;;;;;10427291;28;20509;-55
2024/01/20 16:11:19;;;;;;;3.72;1.55;;;24.70;35.60;;;;;;10431841;28;20136;-59
2024/01/20 16:16:22;;;;;;;6.63;1.50;;;24.80;35.60;;;;;;10437559;28;20064;-55
2024/01/20 16:21:24;;;;;;;1.83;1.40;;;24.70;36.00;;;;;;10432729;28;20042;-56
2024/01/20 16:26:26;;;;;;;3.65;1.60;;;24.80;36.70;;;;;;10430926;28;20049;-57
2024/01/20 16:31:29;;;;;;;3.58;1.48;;;24.70;36.40;;;;;;10433245;28;20033;-56
2024/01/20 16:36:30;;;;;;;3.08;1.40;;;24.70;36.60;;;;;;10435078;28;20055;-52
2024/01/20 16:41:32;;;;;;;3.88;1.40;;;24.80;36.30;;;;;;10430564;28;20321;-52
2024/01/20 16:46:35;;;;;;;8.75;2.13;;;24.90;36.30;;;;;;10426104;28;20210;-53
2024/01/20 16:51:37;;;;;;;8.77;1.63;;;24.50;36.50;;;;;;10427015;28;20042;-54
2024/01/20 16:56:38;;;;;;;4.18;1.50;;;24.40;37.30;;;;;;10432414;28;20041;-49
2024/01/20 17:01:42;;;;;;;3.97;2.13;;;24.40;37.40;;;;;;10427845;28;20073;-45
2024/01/20 17:06:43;;;;;;;8.45;1.77;;;24.50;37.30;;;;;;10433431;28;20045;-50
2024/01/20 17:11:45;;;;;;;7.07;2.00;;;24.60;37.70;;;;;;10436210;28;20605;-43
2024/01/20 17:16:48;;;;;;;4.30;1.58;;;24.60;37.90;;;;;;10435533;28;20494;-46
2024/01/20 17:21:50;;;;;;;3.10;1.58;;;24.40;38.30;;;;;;10430321;28;20049;-46
2024/01/20 17:26:51;;;;;;;4.45;1.60;;;24.50;38.20;;;;;;10422203;28;20135;-46
2024/01/20 17:32:00;;;;;;;3.78;1.80;;;24.20;38.80;;;;;;10431242;28;20055;-43
2024/01/20 17:37:02;;;;;;;3.75;1.70;;;24.20;39.00;;;;;;10425409;28;20139;-46
2024/01/20 17:42:04;;;;;;;3.25;1.52;;;24.30;38.80;;;;;;10427059;28;20055;-44
2024/01/20 17:47:07;;;;;;;2.38;1.50;;;24.10;39.30;;;;;;10427813;28;20128;-48
2024/01/20 17:52:09;;;;;;;2.15;1.58;;;24.30;39.60;;;;;;10435444;28;20131;-44
2024/01/20 17:57:12;;;;;;;2.28;1.45;;;24.80;38.70;;;;;;10430092;28;20046;-47
2024/01/20 18:02:15;;;;;;;3.53;1.67;;;24.80;38.70;;;;;;10425426;28;20108;-49
2024/01/20 18:07:17;;;;;;;3.50;1.60;;;25.00;38.10;;;;;;10428295;28;20071;-46
2024/01/20 18:12:18;;;;;;;5.28;1.50;;;25.10;37.70;;;;;;10440905;28;20482;-46
2024/01/20 18:17:22;;;;;;;14.52;2.67;;;25.10;37.30;;;;;;10434031;28;20412;-49
2024/01/20 18:22:24;;;;;;;12.38;2.30;;;25.10;37.60;;;;;;10436329;28;20042;-46
2024/01/20 18:27:26;;;;;;;10.95;2.65;;;24.80;38.70;;;;;;10441873;28;20059;-46
2024/01/20 18:32:29;;;;;;;9.65;2.42;;;24.90;37.70;;;;;;10436358;28;20049;-47
2024/01/20 18:37:31;;;;;;;7.47;2.33;;;24.90;38.00;;;;;;10433114;28;20136;-47
2024/01/20 18:42:32;;;;;;;4.47;2.92;;;24.90;37.70;;;;;;10434458;28;20136;-46
2024/01/20 18:47:35;;;;;;;10.80;3.72;;;24.80;37.20;;;;;;10438197;28;20052;-47
2024/01/20 18:52:37;;;;;;;6.57;3.53;;;25.10;35.90;;;;;;10438017;28;20544;-47
2024/01/20 18:57:38;;;;;;;6.90;3.60;;;25.20;35.30;;;;;;10435630;28;20544;-49
2024/01/20 19:02:41;;;;;;;8.18;3.88;;;25.10;35.60;;;;;;10434486;28;20058;-47
2024/01/20 19:07:44;;;;;;;10.32;4.10;;;24.90;35.70;;;;;;10439323;28;20050;-48
2024/01/20 19:12:46;;;;;;;11.13;3.90;;;24.90;35.90;;;;;;10434065;28;20045;-46
2024/01/20 19:17:50;;;;;;;12.27;3.30;;;24.80;36.50;;;;;;10429086;28;20045;-48
2024/01/20 19:22:51;;;;;;;17.27;3.70;;;24.70;36.90;;;;;;10438850;28;20045;-46
2024/01/20 19:27:53;;;;;;;15.52;3.05;;;24.70;38.00;;;;;;10437449;28;20052;-46
2024/01/20 19:32:56;;;;;;;12.35;3.45;;;23.90;38.70;;;;;;10428515;28;20055;-46
2024/01/20 19:38:00;;;;;;;8.13;2.67;;;23.40;39.70;;;;;;10432843;28;20048;-49
2024/01/20 19:43:02;;;;;;;9.38;3.13;;;23.20;40.10;;;;;;10440827;28;20049;-49
2024/01/20 19:48:06;;;;;;;11.95;9.52;;;23.00;40.70;;;;;;10436792;28;20635;-47
2024/01/20 19:53:08;;;;;;;24.25;10.32;;;21.10;29.60;;;;;;10435015;28;20128;-48
2024/01/20 19:58:09;;;;;;;15.32;8.90;;;20.20;31.70;;;;;;10428598;28;20045;-48
2024/01/20 20:03:12;;;;;;;10.52;7.07;;;21.10;32.60;;;;;;10438317;28;20047;-48
2024/01/20 20:08:14;;;;;;;9.85;6.07;;;21.80;32.70;;;;;;10435305;28;20053;-46
2024/01/20 20:13:17;;;;;;;13.50;5.40;;;22.00;33.60;;;;;;10431734;28;20095;-46
2024/01/20 20:18:21;;;;;;;9.07;5.20;;;21.90;34.40;;;;;;10433896;28;20077;-48
2024/01/20 20:23:22;;;;;;;20.98;5.68;;;21.80;35.00;;;;;;10437373;28;20045;-48
2024/01/20 20:28:24;;;;;;;15.20;5.05;;;22.00;35.90;;;;;;10431515;28;20071;-48
2024/01/20 20:33:27;;;;;;;20.25;5.28;;;21.70;36.70;;;;;;10431187;28;20179;-47
2024/01/20 20:38:28;;;;;;;10.48;5.25;;;21.70;37.10;;;;;;10434744;28;20136;-49
2024/01/20 20:43:30;;;;;;;16.75;6.95;;;21.90;37.10;;;;;;10434163;28;20055;-48
2024/01/20 20:48:33;;;;;;;19.95;10.15;;;21.90;38.00;;;;;;10436792;28;20140;-46
2024/01/20 20:53:36;;;;;;;23.00;9.82;;;22.00;38.10;;;;;;10433851;28;20514;-46
2024/01/20 20:58:38;;;;;;;18.67;9.52;;;21.90;38.90;;;;;;10434245;28;20037;-48
2024/01/20 21:03:41;;;;;;;19.02;9.77;;;21.90;39.20;;;;;;10430841;28;20052;-50
2024/01/20 21:08:42;;;;;;;20.23;9.40;;;21.80;39.70;;;;;;10426836;28;20220;-48
2024/01/20 21:13:44;;;;;;;17.52;9.27;;;21.80;39.60;;;;;;10426551;28;20049;-47
2024/01/20 21:18:47;;;;;;;31.08;12.15;;;22.00;39.70;;;;;;10428312;28;20052;-45
2024/01/20 21:23:51;;;;;;;28.65;10.15;;;22.20;40.10;;;;;;10432358;28;20056;-49
2024/01/20 21:28:53;;;;;;;18.15;10.20;;;22.00;40.20;;;;;;10430500;28;20049;-46
2024/01/20 21:33:56;;;;;;;15.45;10.07;;;21.70;40.30;;;;;;10433009;28;20063;-47
2024/01/20 21:39:04;;;;;;;14.48;9.77;;;21.80;40.30;;;;;;10431092;28;20052;-46
2024/01/20 21:44:06;;;;;;;14.95;9.13;;;21.70;40.60;;;;;;10427308;28;20069;-46
2024/01/20 21:49:09;;;;;;;19.20;8.98;;;21.70;40.60;;;;;;10431781;28;20049;-46
2024/01/20 21:54:13;;;;;;;19.30;9.15;;;21.70;40.90;;;;;;10424736;28;20451;-46
2024/01/20 21:59:14;;;;;;;19.10;9.00;;;21.80;41.10;;;;;;10433500;28;20315;-46
2024/01/20 22:04:17;;;;;;;13.63;8.45;;;21.70;41.50;;;;;;10428930;28;20063;-49
2024/01/20 22:09:19;;;;;;;15.65;8.82;;;21.70;41.70;;;;;;10427377;28;20048;-49
2024/01/20 22:14:21;;;;;;;14.27;8.90;;;21.60;42.00;;;;;;10434077;28;20045;-48
2024/01/20 22:19:23;;;;;;;13.00;8.38;;;21.60;42.30;;;;;;10428735;28;20136;-45
2024/01/20 22:24:25;;;;;;;13.23;7.65;;;21.60;42.70;;;;;;10429976;28;20045;-48
2024/01/20 22:29:27;;;;;;;12.15;7.63;;;21.60;42.60;;;;;;10425631;28;20076;-48
2024/01/20 22:34:30;;;;;;;16.75;7.68;;;21.50;43.10;;;;;;10430248;28;20059;-47
2024/01/20 22:39:35;;;;;;;14.00;7.40;;;21.80;43.10;;;;;;10433248;28;20091;-46
2024/01/20 22:44:36;;;;;;;17.52;8.43;;;21.60;43.20;;;;;;10427745;28;20041;-46
2024/01/20 22:49:40;;;;;;;15.68;7.93;;;21.60;43.30;;;;;;10436142;28;20048;-50
2024/01/20 22:54:42;;;;;;;16.00;7.40;;;21.50;43.30;;;;;;10431063;28;20067;-51
2024/01/20 22:59:44;;;;;;;11.02;6.78;;;21.40;43.50;;;;;;10435861;28;20470;-46
2024/01/20 23:04:47;;;;;;;12.52;6.95;;;21.50;43.60;;;;;;10432322;28;20076;-47
2024/01/20 23:09:48;;;;;;;14.55;7.55;;;21.50;43.50;;;;;;10435291;28;20094;-46
2024/01/20 23:14:50;;;;;;;12.95;7.03;;;21.40;43.60;;;;;;10438482;28;20059;-48
2024/01/20 23:19:53;;;;;;;15.55;6.78;;;21.50;43.70;;;;;;10441730;28;20488;-50
2024/01/20 23:24:54;;;;;;;9.75;6.85;;;21.40;44.10;;;;;;10439906;28;20506;-45
2024/01/20 23:29:56;;;;;;;9.43;6.95;;;21.50;43.80;;;;;;10435844;28;20517;-47
2024/01/20 23:34:59;;;;;;;12.93;6.72;;;21.40;43.70;;;;;;10431430;28;20140;-46
2024/01/20 23:40:01;;;;;;;10.13;6.18;;;21.50;44.10;;;;;;10437974;28;20135;-50
2024/01/20 23:45:03;;;;;;;16.50;6.82;;;21.40;44.00;;;;;;10428790;28;20059;-51
2024/01/20 23:50:06;;;;;;;11.85;6.68;;;21.50;44.40;;;;;;10433200;28;20128;-51
2024/01/20 23:55:08;;;;;;;11.95;6.13;;;21.50;44.30;;;;;;10434895;28;20481;-48
